sensor_id;sensor_type;location;lat;lon;timestamp;temperature;humidity
16301;DHT22;8258;51.020;4.248;2023-07-29T00:01:40;18.30;99.90
16301;DHT22;8258;51.020;4.248;2023-07-29T00:04:08;18.20;99.90
16301;DHT22;8258;51.020;4.248;2023-07-29T00:06:35;18.20;99.90
16301;DHT22;8258;51.020;4.248;2023-07-29T00:09:02;18.20;99.90
16301;DHT22;8258;51.020;4.248;2023-07-29T00:11:31;18.20;99.90
16301;DHT22;8258;51.020;4.248;2023-07-29T00:13:59;18.20;99.90
16301;DHT22;8258;51.020;4.248;2023-07-29T00:16:26;18.20;99.90
16301;DHT22;8258;51.020;4.248;2023-07-29T00:18:53;18.10;99.90
16301;DHT22;8258;51.020;4.248;2023-07-29T00:21:20;18.10;99.90
16301;DHT22;8258;51.020;4.248;2023-07-29T00:23:47;18.10;99.90
16301;DHT22;8258;51.020;4.248;2023-07-29T00:26:14;18.00;99.90
16301;DHT22;8258;51.020;4.248;2023-07-29T00:28:42;18.00;99.90
16301;DHT22;8258;51.020;4.248;2023-07-29T00:31:09;18.00;99.90
16301;DHT22;8258;51.020;4.248;2023-07-29T00:33:36;18.00;99.90
16301;DHT22;8258;51.020;4.248;2023-07-29T00:36:04;18.00;99.90
16301;DHT22;8258;51.020;4.248;2023-07-29T00:38:31;17.90;99.90
16301;DHT22;8258;51.020;4.248;2023-07-29T00:40:58;17.80;99.90
16301;DHT22;8258;51.020;4.248;2023-07-29T00:43:25;17.80;99.90
16301;DHT22;8258;51.020;4.248;2023-07-29T00:45:54;17.80;99.90
16301;DHT22;8258;51.020;4.248;2023-07-29T00:48:25;17.80;99.90
16301;DHT22;8258;51.020;4.248;2023-07-29T00:50:52;17.80;99.90
16301;DHT22;8258;51.020;4.248;2023-07-29T00:53:19;17.70;99.90
16301;DHT22;8258;51.020;4.248;2023-07-29T00:55:46;17.70;99.90
16301;DHT22;8258;51.020;4.248;2023-07-29T00:58:14;17.70;99.90
16301;DHT22;8258;51.020;4.248;2023-07-29T01:00:41;17.70;99.90
16301;DHT22;8258;51.020;4.248;2023-07-29T01:03:10;17.60;99.90
16301;DHT22;8258;51.020;4.248;2023-07-29T01:05:40;17.60;99.90
16301;DHT22;8258;51.020;4.248;2023-07-29T01:08:21;17.50;99.90
16301;DHT22;8258;51.020;4.248;2023-07-29T01:10:58;17.50;99.90
16301;DHT22;8258;51.020;4.248;2023-07-29T01:13:31;17.40;99.90
16301;DHT22;8258;51.020;4.248;2023-07-29T01:16:01;17.40;99.90
16301;DHT22;8258;51.020;4.248;2023-07-29T01:18:32;17.40;99.90
16301;DHT22;8258;51.020;4.248;2023-07-29T01:21:04;17.30;99.90
16301;DHT22;8258;51.020;4.248;2023-07-29T01:23:34;17.30;99.90
16301;DHT22;8258;51.020;4.248;2023-07-29T01:26:02;17.30;99.90
16301;DHT22;8258;51.020;4.248;2023-07-29T01:28:29;17.30;99.90
16301;DHT22;8258;51.020;4.248;2023-07-29T01:31:02;17.30;99.90
16301;DHT22;8258;51.020;4.248;2023-07-29T01:33:32;17.20;99.90
16301;DHT22;8258;51.020;4.248;2023-07-29T01:36:03;17.20;99.90
16301;DHT22;8258;51.020;4.248;2023-07-29T01:38:36;17.30;99.90
16301;DHT22;8258;51.020;4.248;2023-07-29T01:41:07;17.30;99.90
16301;DHT22;8258;51.020;4.248;2023-07-29T01:43:34;17.30;99.90
16301;DHT22;8258;51.020;4.248;2023-07-29T01:46:07;17.30;99.90
16301;DHT22;8258;51.020;4.248;2023-07-29T01:48:34;17.20;99.90
16301;DHT22;8258;51.020;4.248;2023-07-29T01:51:01;17.10;99.90
16301;DHT22;8258;51.020;4.248;2023-07-29T01:53:28;17.10;99.90
16301;DHT22;8258;51.020;4.248;2023-07-29T01:55:56;17.10;99.90
16301;DHT22;8258;51.020;4.248;2023-07-29T01:58:23;17.10;99.90
16301;DHT22;8258;51.020;4.248;2023-07-29T02:00:50;17.00;99.90
16301;DHT22;8258;51.020;4.248;2023-07-29T02:03:18;17.00;99.90
16301;DHT22;8258;51.020;4.248;2023-07-29T02:05:45;17.00;99.90
16301;DHT22;8258;51.020;4.248;2023-07-29T02:08:12;17.00;99.90
16301;DHT22;8258;51.020;4.248;2023-07-29T02:10:39;17.00;99.90
16301;DHT22;8258;51.020;4.248;2023-07-29T02:13:07;16.90;99.90
16301;DHT22;8258;51.020;4.248;2023-07-29T02:15:34;16.90;99.90
16301;DHT22;8258;51.020;4.248;2023-07-29T02:18:01;16.90;99.90
16301;DHT22;8258;51.020;4.248;2023-07-29T02:20:29;16.90;99.90
16301;DHT22;8258;51.020;4.248;2023-07-29T02:22:56;16.90;99.90
16301;DHT22;8258;51.020;4.248;2023-07-29T02:25:23;16.80;99.90
16301;DHT22;8258;51.020;4.248;2023-07-29T02:27:50;16.80;99.90
16301;DHT22;8258;51.020;4.248;2023-07-29T02:30:18;16.80;99.90
16301;DHT22;8258;51.020;4.248;2023-07-29T02:32:47;16.80;99.90
16301;DHT22;8258;51.020;4.248;2023-07-29T02:35:17;16.90;99.90
16301;DHT22;8258;51.020;4.248;2023-07-29T02:37:44;16.90;99.90
16301;DHT22;8258;51.020;4.248;2023-07-29T02:40:22;16.90;99.90
16301;DHT22;8258;51.020;4.248;2023-07-29T02:43:17;16.90;99.90
16301;DHT22;8258;51.020;4.248;2023-07-29T02:45:45;16.90;99.90
16301;DHT22;8258;51.020;4.248;2023-07-29T02:48:12;16.80;99.90
16301;DHT22;8258;51.020;4.248;2023-07-29T02:50:39;16.80;99.90
16301;DHT22;8258;51.020;4.248;2023-07-29T02:53:06;16.80;99.90
16301;DHT22;8258;51.020;4.248;2023-07-29T02:55:33;16.80;99.90
16301;DHT22;8258;51.020;4.248;2023-07-29T02:58:00;16.90;99.90
16301;DHT22;8258;51.020;4.248;2023-07-29T03:00:27;16.90;99.90
16301;DHT22;8258;51.020;4.248;2023-07-29T03:02:55;16.90;99.90
16301;DHT22;8258;51.020;4.248;2023-07-29T03:05:22;16.80;99.90
16301;DHT22;8258;51.020;4.248;2023-07-29T03:07:49;16.80;99.90
16301;DHT22;8258;51.020;4.248;2023-07-29T03:10:16;16.80;99.90
16301;DHT22;8258;51.020;4.248;2023-07-29T03:12:43;16.80;99.90
16301;DHT22;8258;51.020;4.248;2023-07-29T03:15:12;16.70;99.90
16301;DHT22;8258;51.020;4.248;2023-07-29T03:17:44;16.70;99.90
16301;DHT22;8258;51.020;4.248;2023-07-29T03:20:13;16.70;99.90
16301;DHT22;8258;51.020;4.248;2023-07-29T03:22:40;16.70;99.90
16301;DHT22;8258;51.020;4.248;2023-07-29T03:25:07;16.60;99.90
16301;DHT22;8258;51.020;4.248;2023-07-29T03:27:34;16.60;99.90
16301;DHT22;8258;51.020;4.248;2023-07-29T03:30:03;16.60;99.90
16301;DHT22;8258;51.020;4.248;2023-07-29T03:32:30;16.60;99.90
16301;DHT22;8258;51.020;4.248;2023-07-29T03:34:57;16.60;99.90
16301;DHT22;8258;51.020;4.248;2023-07-29T03:37:25;16.60;99.90
16301;DHT22;8258;51.020;4.248;2023-07-29T03:39:52;16.60;99.90
16301;DHT22;8258;51.020;4.248;2023-07-29T03:42:19;16.60;99.90
16301;DHT22;8258;51.020;4.248;2023-07-29T03:44:46;16.70;99.90
16301;DHT22;8258;51.020;4.248;2023-07-29T03:47:13;16.70;99.90
16301;DHT22;8258;51.020;4.248;2023-07-29T03:49:40;16.70;99.90
16301;DHT22;8258;51.020;4.248;2023-07-29T03:52:07;16.70;99.90
16301;DHT22;8258;51.020;4.248;2023-07-29T03:54:36;16.70;99.90
16301;DHT22;8258;51.020;4.248;2023-07-29T03:57:03;16.70;99.90
16301;DHT22;8258;51.020;4.248;2023-07-29T03:59:30;16.70;99.90
16301;DHT22;8258;51.020;4.248;2023-07-29T04:01:58;16.80;99.90
16301;DHT22;8258;51.020;4.248;2023-07-29T04:04:25;16.80;99.90
16301;DHT22;8258;51.020;4.248;2023-07-29T04:06:52;16.80;99.90
16301;DHT22;8258;51.020;4.248;2023-07-29T04:09:19;16.80;99.90
16301;DHT22;8258;51.020;4.248;2023-07-29T04:43:04;16.60;99.90
16301;DHT22;8258;51.020;4.248;2023-07-29T04:45:42;16.70;99.90
16301;DHT22;8258;51.020;4.248;2023-07-29T04:48:11;16.70;99.90
16301;DHT22;8258;51.020;4.248;2023-07-29T04:50:41;16.70;99.90
16301;DHT22;8258;51.020;4.248;2023-07-29T04:53:12;16.70;99.90
16301;DHT22;8258;51.020;4.248;2023-07-29T04:55:42;16.70;99.90
16301;DHT22;8258;51.020;4.248;2023-07-29T04:58:11;16.80;99.90
16301;DHT22;8258;51.020;4.248;2023-07-29T05:00:39;16.90;99.90
16301;DHT22;8258;51.020;4.248;2023-07-29T05:03:07;16.90;99.90
16301;DHT22;8258;51.020;4.248;2023-07-29T05:05:34;16.90;99.90
16301;DHT22;8258;51.020;4.248;2023-07-29T05:08:01;17.00;99.90
16301;DHT22;8258;51.020;4.248;2023-07-29T05:10:29;17.00;99.90
16301;DHT22;8258;51.020;4.248;2023-07-29T05:12:56;17.00;99.90
16301;DHT22;8258;51.020;4.248;2023-07-29T05:15:24;17.00;99.90
16301;DHT22;8258;51.020;4.248;2023-07-29T05:17:51;17.00;99.90
16301;DHT22;8258;51.020;4.248;2023-07-29T05:20:18;17.00;99.90
16301;DHT22;8258;51.020;4.248;2023-07-29T05:25:21;17.10;99.90
16301;DHT22;8258;51.020;4.248;2023-07-29T05:27:47;17.10;99.90
16301;DHT22;8258;51.020;4.248;2023-07-29T05:30:15;17.00;99.90
16301;DHT22;8258;51.020;4.248;2023-07-29T05:32:44;17.00;99.90
16301;DHT22;8258;51.020;4.248;2023-07-29T05:35:11;16.90;99.90
16301;DHT22;8258;51.020;4.248;2023-07-29T05:42:49;17.10;99.90
16301;DHT22;8258;51.020;4.248;2023-07-29T05:45:21;17.10;99.90
16301;DHT22;8258;51.020;4.248;2023-07-29T05:50:34;17.30;99.90
16301;DHT22;8258;51.020;4.248;2023-07-29T05:53:10;17.40;99.90
16301;DHT22;8258;51.020;4.248;2023-07-29T05:58:29;17.50;99.90
16301;DHT22;8258;51.020;4.248;2023-07-29T06:01:04;17.70;99.90
16301;DHT22;8258;51.020;4.248;2023-07-29T06:03:31;17.80;99.90
16301;DHT22;8258;51.020;4.248;2023-07-29T06:49:54;19.70;99.90
16301;DHT22;8258;51.020;4.248;2023-07-29T06:52:21;19.90;99.90
16301;DHT22;8258;51.020;4.248;2023-07-29T06:54:48;20.00;99.90
16301;DHT22;8258;51.020;4.248;2023-07-29T06:57:15;20.10;99.90
16301;DHT22;8258;51.020;4.248;2023-07-29T06:59:43;20.30;99.90
16301;DHT22;8258;51.020;4.248;2023-07-29T07:02:10;20.40;99.90
16301;DHT22;8258;51.020;4.248;2023-07-29T07:04:38;20.30;99.90
16301;DHT22;8258;51.020;4.248;2023-07-29T07:07:06;20.20;99.90
16301;DHT22;8258;51.020;4.248;2023-07-29T07:09:34;20.10;99.90
16301;DHT22;8258;51.020;4.248;2023-07-29T07:14:37;19.90;99.90
16301;DHT22;8258;51.020;4.248;2023-07-29T07:17:04;19.70;99.90
16301;DHT22;8258;51.020;4.248;2023-07-29T07:22:08;19.60;99.90
16301;DHT22;8258;51.020;4.248;2023-07-29T07:24:35;19.50;99.90
16301;DHT22;8258;51.020;4.248;2023-07-29T07:27:03;19.60;99.90
16301;DHT22;8258;51.020;4.248;2023-07-29T07:29:30;19.70;99.90
16301;DHT22;8258;51.020;4.248;2023-07-29T07:31:57;19.80;99.90
16301;DHT22;8258;51.020;4.248;2023-07-29T07:34:24;20.00;99.90
16301;DHT22;8258;51.020;4.248;2023-07-29T07:36:51;20.20;99.90
16301;DHT22;8258;51.020;4.248;2023-07-29T07:39:19;21.40;99.90
16301;DHT22;8258;51.020;4.248;2023-07-29T07:41:46;22.90;99.90
16301;DHT22;8258;51.020;4.248;2023-07-29T07:44:13;24.50;99.90
16301;DHT22;8258;51.020;4.248;2023-07-29T07:46:43;24.30;99.90
16301;DHT22;8258;51.020;4.248;2023-07-29T07:49:10;23.60;99.90
16301;DHT22;8258;51.020;4.248;2023-07-29T07:51:38;23.10;99.90
16301;DHT22;8258;51.020;4.248;2023-07-29T07:54:05;22.60;99.90
16301;DHT22;8258;51.020;4.248;2023-07-29T07:56:33;22.50;99.90
16301;DHT22;8258;51.020;4.248;2023-07-29T07:59:00;22.30;99.90
16301;DHT22;8258;51.020;4.248;2023-07-29T08:01:27;22.30;99.90
16301;DHT22;8258;51.020;4.248;2023-07-29T08:03:54;22.50;99.90
16301;DHT22;8258;51.020;4.248;2023-07-29T08:06:21;22.50;99.90
16301;DHT22;8258;51.020;4.248;2023-07-29T08:08:48;22.90;99.90
16301;DHT22;8258;51.020;4.248;2023-07-29T08:11:15;23.70;99.90
16301;DHT22;8258;51.020;4.248;2023-07-29T08:13:46;24.50;99.90
16301;DHT22;8258;51.020;4.248;2023-07-29T08:16:15;24.30;99.90
16301;DHT22;8258;51.020;4.248;2023-07-29T08:18:43;23.50;99.90
16301;DHT22;8258;51.020;4.248;2023-07-29T08:21:10;23.10;99.90
16301;DHT22;8258;51.020;4.248;2023-07-29T08:23:37;23.40;99.90
16301;DHT22;8258;51.020;4.248;2023-07-29T08:26:05;23.60;99.90
16301;DHT22;8258;51.020;4.248;2023-07-29T08:28:33;23.40;99.90
16301;DHT22;8258;51.020;4.248;2023-07-29T08:31:02;23.50;99.90
16301;DHT22;8258;51.020;4.248;2023-07-29T08:33:29;24.40;99.90
16301;DHT22;8258;51.020;4.248;2023-07-29T08:36:06;24.90;99.90
16301;DHT22;8258;51.020;4.248;2023-07-29T08:38:33;24.90;99.90
16301;DHT22;8258;51.020;4.248;2023-07-29T08:41:06;25.10;99.90
16301;DHT22;8258;51.020;4.248;2023-07-29T08:43:39;25.60;99.90
16301;DHT22;8258;51.020;4.248;2023-07-29T08:46:09;26.50;99.90
16301;DHT22;8258;51.020;4.248;2023-07-29T08:48:40;26.40;99.90
16301;DHT22;8258;51.020;4.248;2023-07-29T08:51:08;26.40;99.90
16301;DHT22;8258;51.020;4.248;2023-07-29T08:53:37;26.90;99.90
16301;DHT22;8258;51.020;4.248;2023-07-29T08:56:05;27.10;99.90
16301;DHT22;8258;51.020;4.248;2023-07-29T08:58:32;27.00;99.90
16301;DHT22;8258;51.020;4.248;2023-07-29T09:00:59;26.50;99.90
16301;DHT22;8258;51.020;4.248;2023-07-29T09:03:28;26.10;99.90
16301;DHT22;8258;51.020;4.248;2023-07-29T09:05:55;25.20;99.90
16301;DHT22;8258;51.020;4.248;2023-07-29T09:08:24;24.60;99.90
16301;DHT22;8258;51.020;4.248;2023-07-29T09:10:53;24.20;99.90
16301;DHT22;8258;51.020;4.248;2023-07-29T09:13:20;23.80;99.90
16301;DHT22;8258;51.020;4.248;2023-07-29T09:15:47;23.60;99.90
16301;DHT22;8258;51.020;4.248;2023-07-29T09:18:16;23.40;99.90
16301;DHT22;8258;51.020;4.248;2023-07-29T09:20:46;23.20;99.90
16301;DHT22;8258;51.020;4.248;2023-07-29T09:23:13;23.10;99.90
16301;DHT22;8258;51.020;4.248;2023-07-29T09:25:41;23.10;99.90
16301;DHT22;8258;51.020;4.248;2023-07-29T09:28:09;23.10;99.90
16301;DHT22;8258;51.020;4.248;2023-07-29T09:30:38;22.90;99.90
16301;DHT22;8258;51.020;4.248;2023-07-29T09:33:05;23.00;99.90
16301;DHT22;8258;51.020;4.248;2023-07-29T09:35:34;23.10;99.90
16301;DHT22;8258;51.020;4.248;2023-07-29T09:38:04;22.90;99.90
16301;DHT22;8258;51.020;4.248;2023-07-29T09:43:09;22.20;99.90
16301;DHT22;8258;51.020;4.248;2023-07-29T09:45:37;22.20;99.90
16301;DHT22;8258;51.020;4.248;2023-07-29T09:48:05;22.20;99.90
16301;DHT22;8258;51.020;4.248;2023-07-29T09:50:35;22.40;99.90
16301;DHT22;8258;51.020;4.248;2023-07-29T09:53:03;22.40;99.90
16301;DHT22;8258;51.020;4.248;2023-07-29T09:55:33;22.50;99.90
16301;DHT22;8258;51.020;4.248;2023-07-29T09:58:01;23.00;99.90
16301;DHT22;8258;51.020;4.248;2023-07-29T10:00:30;23.60;99.90
16301;DHT22;8258;51.020;4.248;2023-07-29T10:02:57;23.50;99.90
16301;DHT22;8258;51.020;4.248;2023-07-29T10:05:27;23.20;99.90
16301;DHT22;8258;51.020;4.248;2023-07-29T10:07:55;23.20;99.90
16301;DHT22;8258;51.020;4.248;2023-07-29T10:10:24;23.50;99.90
16301;DHT22;8258;51.020;4.248;2023-07-29T10:12:53;23.90;99.90
16301;DHT22;8258;51.020;4.248;2023-07-29T10:15:21;24.00;99.90
16301;DHT22;8258;51.020;4.248;2023-07-29T10:17:50;23.80;99.90
16301;DHT22;8258;51.020;4.248;2023-07-29T10:20:18;23.70;99.90
16301;DHT22;8258;51.020;4.248;2023-07-29T10:22:47;23.70;99.90
16301;DHT22;8258;51.020;4.248;2023-07-29T10:25:16;23.40;99.90
16301;DHT22;8258;51.020;4.248;2023-07-29T10:27:49;23.20;99.90
16301;DHT22;8258;51.020;4.248;2023-07-29T10:30:18;23.40;99.90
16301;DHT22;8258;51.020;4.248;2023-07-29T10:32:46;23.60;99.90
16301;DHT22;8258;51.020;4.248;2023-07-29T10:35:14;23.60;99.90
16301;DHT22;8258;51.020;4.248;2023-07-29T10:37:41;23.50;99.90
16301;DHT22;8258;51.020;4.248;2023-07-29T10:40:10;23.20;99.90
16301;DHT22;8258;51.020;4.248;2023-07-29T10:42:37;23.20;99.90
16301;DHT22;8258;51.020;4.248;2023-07-29T10:45:24;23.50;99.90
16301;DHT22;8258;51.020;4.248;2023-07-29T10:47:51;23.80;99.90
16301;DHT22;8258;51.020;4.248;2023-07-29T10:50:19;24.10;99.90
16301;DHT22;8258;51.020;4.248;2023-07-29T10:52:50;24.10;99.90
16301;DHT22;8258;51.020;4.248;2023-07-29T10:55:28;23.60;99.90
16301;DHT22;8258;51.020;4.248;2023-07-29T10:58:12;23.30;99.90
16301;DHT22;8258;51.020;4.248;2023-07-29T11:00:41;23.30;99.90
16301;DHT22;8258;51.020;4.248;2023-07-29T11:03:08;23.50;99.90
16301;DHT22;8258;51.020;4.248;2023-07-29T11:05:44;23.70;99.90
16301;DHT22;8258;51.020;4.248;2023-07-29T11:08:21;23.40;99.90
16301;DHT22;8258;51.020;4.248;2023-07-29T11:11:05;23.30;99.90
16301;DHT22;8258;51.020;4.248;2023-07-29T11:13:34;23.00;99.90
16301;DHT22;8258;51.020;4.248;2023-07-29T11:16:03;22.90;99.90
16301;DHT22;8258;51.020;4.248;2023-07-29T11:18:31;22.80;99.90
16301;DHT22;8258;51.020;4.248;2023-07-29T11:21:00;22.70;99.90
16301;DHT22;8258;51.020;4.248;2023-07-29T11:23:32;22.60;99.90
16301;DHT22;8258;51.020;4.248;2023-07-29T11:25:59;22.40;99.90
16301;DHT22;8258;51.020;4.248;2023-07-29T11:28:27;22.20;99.90
16301;DHT22;8258;51.020;4.248;2023-07-29T11:30:55;22.00;99.90
16301;DHT22;8258;51.020;4.248;2023-07-29T11:33:25;22.00;99.90
16301;DHT22;8258;51.020;4.248;2023-07-29T11:35:53;22.00;99.90
16301;DHT22;8258;51.020;4.248;2023-07-29T11:38:21;22.00;99.90
16301;DHT22;8258;51.020;4.248;2023-07-29T11:40:57;22.30;99.90
16301;DHT22;8258;51.020;4.248;2023-07-29T11:43:25;23.00;99.90
16301;DHT22;8258;51.020;4.248;2023-07-29T11:45:52;24.60;99.90
16301;DHT22;8258;51.020;4.248;2023-07-29T11:48:27;26.00;99.90
16301;DHT22;8258;51.020;4.248;2023-07-29T11:50:55;27.00;99.90
16301;DHT22;8258;51.020;4.248;2023-07-29T11:53:22;27.10;99.90
16301;DHT22;8258;51.020;4.248;2023-07-29T11:55:51;26.00;99.90
16301;DHT22;8258;51.020;4.248;2023-07-29T11:58:19;24.80;99.90
16301;DHT22;8258;51.020;4.248;2023-07-29T12:00:47;23.80;99.90
16301;DHT22;8258;51.020;4.248;2023-07-29T12:03:14;22.90;99.90
16301;DHT22;8258;51.020;4.248;2023-07-29T12:05:44;22.60;99.90
16301;DHT22;8258;51.020;4.248;2023-07-29T12:08:11;22.30;99.90
16301;DHT22;8258;51.020;4.248;2023-07-29T12:10:38;22.20;99.90
16301;DHT22;8258;51.020;4.248;2023-07-29T12:13:08;22.40;99.90
16301;DHT22;8258;51.020;4.248;2023-07-29T12:15:35;22.80;99.90
16301;DHT22;8258;51.020;4.248;2023-07-29T12:18:04;24.10;99.90
16301;DHT22;8258;51.020;4.248;2023-07-29T12:20:31;25.90;99.90
16301;DHT22;8258;51.020;4.248;2023-07-29T12:23:00;27.00;99.90
16301;DHT22;8258;51.020;4.248;2023-07-29T12:25:28;27.70;99.90
16301;DHT22;8258;51.020;4.248;2023-07-29T12:27:55;28.10;99.90
16301;DHT22;8258;51.020;4.248;2023-07-29T12:30:22;28.50;99.90
16301;DHT22;8258;51.020;4.248;2023-07-29T12:32:50;28.90;99.90
16301;DHT22;8258;51.020;4.248;2023-07-29T12:35:17;29.50;99.90
16301;DHT22;8258;51.020;4.248;2023-07-29T12:37:44;30.00;99.90
16301;DHT22;8258;51.020;4.248;2023-07-29T12:40:22;29.90;99.90
16301;DHT22;8258;51.020;4.248;2023-07-29T12:42:50;29.20;99.90
16301;DHT22;8258;51.020;4.248;2023-07-29T12:45:17;28.30;99.90
16301;DHT22;8258;51.020;4.248;2023-07-29T12:47:44;28.30;99.90
16301;DHT22;8258;51.020;4.248;2023-07-29T12:50:11;29.00;99.90
16301;DHT22;8258;51.020;4.248;2023-07-29T12:52:38;28.40;99.90
16301;DHT22;8258;51.020;4.248;2023-07-29T12:55:06;27.60;99.90
16301;DHT22;8258;51.020;4.248;2023-07-29T12:57:41;27.50;99.90
16301;DHT22;8258;51.020;4.248;2023-07-29T13:00:09;28.00;99.90
16301;DHT22;8258;51.020;4.248;2023-07-29T13:02:36;28.70;99.90
16301;DHT22;8258;51.020;4.248;2023-07-29T13:05:04;28.60;99.90
16301;DHT22;8258;51.020;4.248;2023-07-29T13:07:31;28.60;99.90
16301;DHT22;8258;51.020;4.248;2023-07-29T13:09:58;28.40;99.90
16301;DHT22;8258;51.020;4.248;2023-07-29T13:12:25;27.50;99.90
16301;DHT22;8258;51.020;4.248;2023-07-29T13:14:54;27.10;99.90
16301;DHT22;8258;51.020;4.248;2023-07-29T13:17:21;26.70;99.90
16301;DHT22;8258;51.020;4.248;2023-07-29T13:19:48;26.70;99.90
16301;DHT22;8258;51.020;4.248;2023-07-29T13:22:15;27.40;99.90
16301;DHT22;8258;51.020;4.248;2023-07-29T13:24:42;27.60;99.90
16301;DHT22;8258;51.020;4.248;2023-07-29T13:27:09;27.60;99.90
16301;DHT22;8258;51.020;4.248;2023-07-29T13:29:36;28.10;99.90
16301;DHT22;8258;51.020;4.248;2023-07-29T13:32:05;28.80;99.90
16301;DHT22;8258;51.020;4.248;2023-07-29T13:34:33;29.50;99.90
16301;DHT22;8258;51.020;4.248;2023-07-29T13:37:00;29.80;99.90
16301;DHT22;8258;51.020;4.248;2023-07-29T13:39:27;29.60;99.90
16301;DHT22;8258;51.020;4.248;2023-07-29T13:41:54;28.40;99.90
16301;DHT22;8258;51.020;4.248;2023-07-29T13:44:21;27.80;99.90
16301;DHT22;8258;51.020;4.248;2023-07-29T13:46:48;27.30;99.90
16301;DHT22;8258;51.020;4.248;2023-07-29T13:49:16;27.10;99.90
16301;DHT22;8258;51.020;4.248;2023-07-29T13:51:43;27.00;99.90
16301;DHT22;8258;51.020;4.248;2023-07-29T13:54:10;26.70;99.90
16301;DHT22;8258;51.020;4.248;2023-07-29T13:56:37;27.60;99.90
16301;DHT22;8258;51.020;4.248;2023-07-29T13:59:04;29.10;99.90
16301;DHT22;8258;51.020;4.248;2023-07-29T14:01:31;29.10;99.90
16301;DHT22;8258;51.020;4.248;2023-07-29T14:03:58;28.30;99.90
16301;DHT22;8258;51.020;4.248;2023-07-29T14:06:26;27.30;99.90
16301;DHT22;8258;51.020;4.248;2023-07-29T14:08:53;26.90;99.90
16301;DHT22;8258;51.020;4.248;2023-07-29T14:11:20;26.40;99.90
16301;DHT22;8258;51.020;4.248;2023-07-29T14:13:47;25.50;99.90
16301;DHT22;8258;51.020;4.248;2023-07-29T14:16:14;25.10;99.90
16301;DHT22;8258;51.020;4.248;2023-07-29T14:18:40;24.70;99.90
16301;DHT22;8258;51.020;4.248;2023-07-29T14:21:07;24.50;99.90
16301;DHT22;8258;51.020;4.248;2023-07-29T14:23:36;24.20;99.90
16301;DHT22;8258;51.020;4.248;2023-07-29T14:26:03;24.00;99.90
16301;DHT22;8258;51.020;4.248;2023-07-29T14:28:29;23.80;99.90
16301;DHT22;8258;51.020;4.248;2023-07-29T14:30:56;23.70;99.90
16301;DHT22;8258;51.020;4.248;2023-07-29T14:33:24;23.40;99.90
16301;DHT22;8258;51.020;4.248;2023-07-29T14:35:52;22.70;99.90
16301;DHT22;8258;51.020;4.248;2023-07-29T14:38:19;22.20;99.90
16301;DHT22;8258;51.020;4.248;2023-07-29T14:40:48;22.00;99.90
16301;DHT22;8258;51.020;4.248;2023-07-29T14:43:16;21.90;99.90
16301;DHT22;8258;51.020;4.248;2023-07-29T14:45:43;21.70;99.90
16301;DHT22;8258;51.020;4.248;2023-07-29T14:48:10;22.30;99.90
16301;DHT22;8258;51.020;4.248;2023-07-29T14:50:37;23.60;99.90
16301;DHT22;8258;51.020;4.248;2023-07-29T14:53:04;25.90;99.90
16301;DHT22;8258;51.020;4.248;2023-07-29T14:55:31;27.70;99.90
16301;DHT22;8258;51.020;4.248;2023-07-29T14:57:59;28.50;99.90
16301;DHT22;8258;51.020;4.248;2023-07-29T15:00:27;28.40;99.90
16301;DHT22;8258;51.020;4.248;2023-07-29T15:02:54;28.30;99.90
16301;DHT22;8258;51.020;4.248;2023-07-29T15:05:21;28.00;99.90
16301;DHT22;8258;51.020;4.248;2023-07-29T15:07:48;26.90;99.90
16301;DHT22;8258;51.020;4.248;2023-07-29T15:10:16;26.40;99.90
16301;DHT22;8258;51.020;4.248;2023-07-29T15:12:43;26.00;99.90
16301;DHT22;8258;51.020;4.248;2023-07-29T15:15:12;25.30;99.90
16301;DHT22;8258;51.020;4.248;2023-07-29T15:17:39;25.00;99.90
16301;DHT22;8258;51.020;4.248;2023-07-29T15:20:06;25.20;99.90
16301;DHT22;8258;51.020;4.248;2023-07-29T15:22:33;25.90;99.90
16301;DHT22;8258;51.020;4.248;2023-07-29T15:25:00;25.80;99.90
16301;DHT22;8258;51.020;4.248;2023-07-29T15:27:28;24.80;99.90
16301;DHT22;8258;51.020;4.248;2023-07-29T15:29:55;24.40;99.90
16301;DHT22;8258;51.020;4.248;2023-07-29T15:32:23;24.20;99.90
16301;DHT22;8258;51.020;4.248;2023-07-29T15:34:50;24.10;99.90
16301;DHT22;8258;51.020;4.248;2023-07-29T15:37:17;24.10;99.90
16301;DHT22;8258;51.020;4.248;2023-07-29T15:39:44;24.00;99.90
16301;DHT22;8258;51.020;4.248;2023-07-29T15:42:11;23.90;99.90
16301;DHT22;8258;51.020;4.248;2023-07-29T15:44:38;24.00;99.90
16301;DHT22;8258;51.020;4.248;2023-07-29T15:47:06;24.20;99.90
16301;DHT22;8258;51.020;4.248;2023-07-29T15:49:34;24.00;99.90
16301;DHT22;8258;51.020;4.248;2023-07-29T15:52:01;23.90;99.90
16301;DHT22;8258;51.020;4.248;2023-07-29T15:54:28;24.10;99.90
16301;DHT22;8258;51.020;4.248;2023-07-29T15:56:55;24.30;99.90
16301;DHT22;8258;51.020;4.248;2023-07-29T15:59:22;23.90;99.90
16301;DHT22;8258;51.020;4.248;2023-07-29T16:01:51;23.60;99.90
16301;DHT22;8258;51.020;4.248;2023-07-29T16:04:18;23.50;99.90
16301;DHT22;8258;51.020;4.248;2023-07-29T16:06:46;23.60;99.90
16301;DHT22;8258;51.020;4.248;2023-07-29T16:09:13;23.90;99.90
16301;DHT22;8258;51.020;4.248;2023-07-29T16:11:40;24.30;99.90
16301;DHT22;8258;51.020;4.248;2023-07-29T16:14:08;24.60;99.90
16301;DHT22;8258;51.020;4.248;2023-07-29T16:16:34;24.90;99.90
16301;DHT22;8258;51.020;4.248;2023-07-29T16:19:01;24.50;99.90
16301;DHT22;8258;51.020;4.248;2023-07-29T16:21:29;24.10;99.90
16301;DHT22;8258;51.020;4.248;2023-07-29T16:23:57;23.70;99.90
16301;DHT22;8258;51.020;4.248;2023-07-29T16:26:24;23.60;99.90
16301;DHT22;8258;51.020;4.248;2023-07-29T16:28:51;23.70;99.90
16301;DHT22;8258;51.020;4.248;2023-07-29T16:31:18;23.90;99.90
16301;DHT22;8258;51.020;4.248;2023-07-29T16:33:46;23.90;99.90
16301;DHT22;8258;51.020;4.248;2023-07-29T16:36:13;23.80;99.90
16301;DHT22;8258;51.020;4.248;2023-07-29T16:38:40;23.60;99.90
16301;DHT22;8258;51.020;4.248;2023-07-29T16:41:09;23.20;99.90
16301;DHT22;8258;51.020;4.248;2023-07-29T16:43:35;23.10;99.90
16301;DHT22;8258;51.020;4.248;2023-07-29T16:46:02;23.20;99.90
16301;DHT22;8258;51.020;4.248;2023-07-29T16:48:29;23.20;99.90
16301;DHT22;8258;51.020;4.248;2023-07-29T16:50:56;23.30;99.90
16301;DHT22;8258;51.020;4.248;2023-07-29T16:53:24;23.30;99.90
16301;DHT22;8258;51.020;4.248;2023-07-29T16:55:51;23.10;99.90
16301;DHT22;8258;51.020;4.248;2023-07-29T16:58:19;23.10;99.90
16301;DHT22;8258;51.020;4.248;2023-07-29T17:00:46;23.00;99.90
16301;DHT22;8258;51.020;4.248;2023-07-29T17:03:13;22.90;99.90
16301;DHT22;8258;51.020;4.248;2023-07-29T17:05:43;23.10;99.90
16301;DHT22;8258;51.020;4.248;2023-07-29T17:08:10;23.20;99.90
16301;DHT22;8258;51.020;4.248;2023-07-29T17:10:37;23.00;99.90
16301;DHT22;8258;51.020;4.248;2023-07-29T17:13:04;23.20;99.90
16301;DHT22;8258;51.020;4.248;2023-07-29T17:15:32;23.20;99.90
16301;DHT22;8258;51.020;4.248;2023-07-29T17:17:59;23.20;99.90
16301;DHT22;8258;51.020;4.248;2023-07-29T17:20:26;23.30;99.90
16301;DHT22;8258;51.020;4.248;2023-07-29T17:22:53;23.10;99.90
16301;DHT22;8258;51.020;4.248;2023-07-29T17:25:20;23.10;99.90
16301;DHT22;8258;51.020;4.248;2023-07-29T17:27:48;23.20;99.90